sensor_id;sensor_type;location;lat;lon;timestamp;pressure;altitude;pressure_sealevel;temperature;humidity
52651;BME280;38537;47.226;39.702;2023-06-26T00:01:33;99889.44;;;22.11;70.92
52651;BME280;38537;47.226;39.702;2023-06-26T00:04:01;99889.84;;;22.06;70.57
52651;BME280;38537;47.226;39.702;2023-06-26T00:06:28;99887.31;;;21.97;69.96
52651;BME280;38537;47.226;39.702;2023-06-26T00:08:56;99885.63;;;21.85;69.62
52651;BME280;38537;47.226;39.702;2023-06-26T00:11:23;99890.47;;;21.81;69.92
52651;BME280;38537;47.226;39.702;2023-06-26T00:13:51;99883.16;;;21.87;70.65
52651;BME280;38537;47.226;39.702;2023-06-26T00:16:18;99888.84;;;21.87;69.59
52651;BME280;38537;47.226;39.702;2023-06-26T00:18:48;99888.47;;;21.85;69.02
52651;BME280;38537;47.226;39.702;2023-06-26T00:21:18;99885.63;;;21.85;69.15
52651;BME280;38537;47.226;39.702;2023-06-26T00:23:49;99895.34;;;21.88;68.68
52651;BME280;38537;47.226;39.702;2023-06-26T00:26:19;99892.13;;;21.89;68.72
52651;BME280;38537;47.226;39.702;2023-06-26T00:28:46;99897.38;;;21.87;67.73
52651;BME280;38537;47.226;39.702;2023-06-26T00:31:14;99897.84;;;21.97;68.45
52651;BME280;38537;47.226;39.702;2023-06-26T00:33:44;99897.94;;;22.04;68.12
52651;BME280;38537;47.226;39.702;2023-06-26T00:36:14;99899.59;;;22.08;67.80
52651;BME280;38537;47.226;39.702;2023-06-26T00:38:42;99890.66;;;22.13;67.57
52651;BME280;38537;47.226;39.702;2023-06-26T00:41:12;99892.31;;;22.18;67.05
52651;BME280;38537;47.226;39.702;2023-06-26T00:43:43;99893.59;;;22.24;67.41
52651;BME280;38537;47.226;39.702;2023-06-26T00:46:14;99878.97;;;22.29;66.82
52651;BME280;38537;47.226;39.702;2023-06-26T00:48:43;99871.66;;;22.32;66.33
52651;BME280;38537;47.226;39.702;2023-06-26T00:51:12;99871.69;;;22.39;66.24
52651;BME280;38537;47.226;39.702;2023-06-26T00:53:46;99872.50;;;22.36;65.21
52651;BME280;38537;47.226;39.702;2023-06-26T00:56:25;99871.28;;;22.37;66.00
52651;BME280;38537;47.226;39.702;2023-06-26T00:58:59;99873.69;;;22.31;65.01
52651;BME280;38537;47.226;39.702;2023-06-26T01:01:28;99866.38;;;22.34;65.79
52651;BME280;38537;47.226;39.702;2023-06-26T01:03:56;99867.25;;;22.41;66.09
52651;BME280;38537;47.226;39.702;2023-06-26T01:06:27;99864.44;;;22.55;66.39
52651;BME280;38537;47.226;39.702;2023-06-26T01:09:02;99867.31;;;22.63;65.85
52651;BME280;38537;47.226;39.702;2023-06-26T01:11:33;99871.81;;;22.71;66.11
52651;BME280;38537;47.226;39.702;2023-06-26T01:14:02;99855.59;;;22.78;65.41
52651;BME280;38537;47.226;39.702;2023-06-26T01:16:30;99853.97;;;22.81;65.13
52651;BME280;38537;47.226;39.702;2023-06-26T01:18:58;99851.47;;;22.65;62.51
52651;BME280;38537;47.226;39.702;2023-06-26T01:21:29;99859.97;;;22.54;64.69
52651;BME280;38537;47.226;39.702;2023-06-26T01:24:34;99862.75;;;22.40;62.40
52651;BME280;38537;47.226;39.702;2023-06-26T01:26:57;99860.66;;;22.23;63.42
52651;BME280;38537;47.226;39.702;2023-06-26T01:29:29;99849.66;;;22.18;64.42
52651;BME280;38537;47.226;39.702;2023-06-26T01:31:59;99849.25;;;22.16;64.37
52651;BME280;38537;47.226;39.702;2023-06-26T01:34:29;99846.38;;;22.12;63.39
52651;BME280;38537;47.226;39.702;2023-06-26T01:37:00;99848.81;;;22.10;63.74
52651;BME280;38537;47.226;39.702;2023-06-26T01:39:30;99848.00;;;22.13;64.45
52651;BME280;38537;47.226;39.702;2023-06-26T01:41:58;99853.75;;;22.24;64.46
52651;BME280;38537;47.226;39.702;2023-06-26T01:44:29;99851.31;;;22.22;64.18
52651;BME280;38537;47.226;39.702;2023-06-26T01:47:06;99850.50;;;22.22;62.46
52651;BME280;38537;47.226;39.702;2023-06-26T01:54:37;99846.34;;;22.02;63.65
52651;BME280;38537;47.226;39.702;2023-06-26T01:57:05;99844.72;;;22.01;63.46
52651;BME280;38537;47.226;39.702;2023-06-26T01:59:34;99839.03;;;22.01;63.90
52651;BME280;38537;47.226;39.702;2023-06-26T02:02:06;99834.09;;;21.98;63.22
52651;BME280;38537;47.226;39.702;2023-06-26T02:04:44;99835.25;;;21.86;63.24
52651;BME280;38537;47.226;39.702;2023-06-26T02:07:13;99834.03;;;21.83;63.58
52651;BME280;38537;47.226;39.702;2023-06-26T02:09:41;99837.25;;;21.78;63.23
52651;BME280;38537;47.226;39.702;2023-06-26T02:12:11;99831.59;;;21.85;63.96
52651;BME280;38537;47.226;39.702;2023-06-26T02:14:41;99834.84;;;21.87;63.29
52651;BME280;38537;47.226;39.702;2023-06-26T02:17:12;99834.00;;;21.80;63.09
52651;BME280;38537;47.226;39.702;2023-06-26T02:19:39;99837.28;;;21.85;63.82
52651;BME280;38537;47.226;39.702;2023-06-26T02:22:14;99840.56;;;21.95;63.83
52651;BME280;38537;47.226;39.702;2023-06-26T02:24:46;99842.22;;;21.96;63.33
52651;BME280;38537;47.226;39.702;2023-06-26T02:27:14;99835.66;;;21.88;62.15
52651;BME280;38537;47.226;39.702;2023-06-26T02:29:44;99835.66;;;21.84;63.47
52651;BME280;38537;47.226;39.702;2023-06-26T02:32:11;99838.50;;;21.88;63.67
52651;BME280;38537;47.226;39.702;2023-06-26T02:34:38;99835.69;;;21.92;63.34
52651;BME280;38537;47.226;39.702;2023-06-26T02:37:08;99833.22;;;21.90;62.91
52651;BME280;38537;47.226;39.702;2023-06-26T02:39:42;99836.53;;;21.99;63.58
52651;BME280;38537;47.226;39.702;2023-06-26T02:42:09;99842.69;;;22.05;62.85
52651;BME280;38537;47.226;39.702;2023-06-26T02:44:37;99839.06;;;22.08;63.23
52651;BME280;38537;47.226;39.702;2023-06-26T02:47:07;99843.56;;;22.19;63.61
52651;BME280;38537;47.226;39.702;2023-06-26T02:49:39;99848.06;;;22.20;62.40
52651;BME280;38537;47.226;39.702;2023-06-26T02:52:07;99839.56;;;22.28;63.25
52651;BME280;38537;47.226;39.702;2023-06-26T02:54:41;99833.88;;;22.35;63.13
52651;BME280;38537;47.226;39.702;2023-06-26T02:57:11;99844.91;;;22.47;63.22
52651;BME280;38537;47.226;39.702;2023-06-26T02:59:42;99841.66;;;22.55;63.10
52651;BME280;38537;47.226;39.702;2023-06-26T03:02:10;99835.56;;;22.53;61.65
52651;BME280;38537;47.226;39.702;2023-06-26T03:04:45;99835.97;;;22.45;61.23
52651;BME280;38537;47.226;39.702;2023-06-26T03:07:15;99831.88;;;22.39;61.96
52651;BME280;38537;47.226;39.702;2023-06-26T03:09:42;99846.53;;;22.44;62.21
52651;BME280;38537;47.226;39.702;2023-06-26T03:12:17;99834.34;;;22.47;62.59
52651;BME280;38537;47.226;39.702;2023-06-26T03:14:45;99832.75;;;22.61;63.03
52651;BME280;38537;47.226;39.702;2023-06-26T03:17:13;99840.91;;;22.69;61.90
52651;BME280;38537;47.226;39.702;2023-06-26T03:19:43;99836.00;;;22.63;61.81
52651;BME280;38537;47.226;39.702;2023-06-26T03:22:23;99839.28;;;22.68;61.62
52651;BME280;38537;47.226;39.702;2023-06-26T03:24:52;99831.56;;;22.69;62.18
52651;BME280;38537;47.226;39.702;2023-06-26T03:27:20;99827.47;;;22.77;62.55
52651;BME280;38537;47.226;39.702;2023-06-26T03:29:48;99825.91;;;22.83;62.50
52651;BME280;38537;47.226;39.702;2023-06-26T03:32:19;99825.50;;;22.84;61.84
52651;BME280;38537;47.226;39.702;2023-06-26T03:34:48;99821.44;;;22.82;62.27
52651;BME280;38537;47.226;39.702;2023-06-26T03:37:30;99815.75;;;22.89;62.27
52651;BME280;38537;47.226;39.702;2023-06-26T03:39:59;99814.53;;;22.90;62.14
52651;BME280;38537;47.226;39.702;2023-06-26T03:42:30;99821.44;;;23.00;62.31
52651;BME280;38537;47.226;39.702;2023-06-26T03:45:00;99823.09;;;23.11;62.45
52651;BME280;38537;47.226;39.702;2023-06-26T03:47:31;99821.03;;;23.22;62.05
52651;BME280;38537;47.226;39.702;2023-06-26T03:49:59;99814.53;;;23.33;62.17
52651;BME280;38537;47.226;39.702;2023-06-26T03:52:26;99823.91;;;23.33;61.64
52651;BME280;38537;47.226;39.702;2023-06-26T03:54:53;99813.31;;;23.27;61.13
52651;BME280;38537;47.226;39.702;2023-06-26T03:57:21;99819.03;;;23.16;60.12
52651;BME280;38537;47.226;39.702;2023-06-26T03:59:54;99818.19;;;23.08;60.69
52651;BME280;38537;47.226;39.702;2023-06-26T04:02:21;99818.19;;;22.98;60.33
52651;BME280;38537;47.226;39.702;2023-06-26T04:04:49;99815.75;;;23.00;61.56
52651;BME280;38537;47.226;39.702;2023-06-26T04:07:17;99810.88;;;23.04;61.65
52651;BME280;38537;47.226;39.702;2023-06-26T04:09:44;99808.44;;;23.09;61.67
52651;BME280;38537;47.226;39.702;2023-06-26T04:12:14;99817.81;;;23.13;61.32
52651;BME280;38537;47.226;39.702;2023-06-26T04:14:44;99802.75;;;23.16;61.71
52651;BME280;38537;47.226;39.702;2023-06-26T04:17:14;99805.59;;;23.27;61.91
52651;BME280;38537;47.226;39.702;2023-06-26T04:19:42;99800.69;;;23.38;61.61
52651;BME280;38537;47.226;39.702;2023-06-26T04:22:09;99797.41;;;23.40;61.10
52651;BME280;38537;47.226;39.702;2023-06-26T04:24:37;99797.03;;;23.38;60.27
52651;BME280;38537;47.226;39.702;2023-06-26T04:27:05;99793.78;;;23.32;60.62
52651;BME280;38537;47.226;39.702;2023-06-26T04:29:35;99792.56;;;23.30;60.11
52651;BME280;38537;47.226;39.702;2023-06-26T04:32:03;99791.34;;;23.20;60.68
52651;BME280;38537;47.226;39.702;2023-06-26T04:34:36;99787.28;;;23.10;60.82
52651;BME280;38537;47.226;39.702;2023-06-26T04:37:08;99788.09;;;23.07;60.76
52651;BME280;38537;47.226;39.702;2023-06-26T04:39:36;99780.75;;;22.99;60.70
52651;BME280;38537;47.226;39.702;2023-06-26T04:42:10;99785.66;;;22.92;61.49
52651;BME280;38537;47.226;39.702;2023-06-26T04:44:39;99781.59;;;22.89;61.66
52651;BME280;38537;47.226;39.702;2023-06-26T04:47:10;99773.84;;;22.86;62.02
52651;BME280;38537;47.226;39.702;2023-06-26T04:49:41;99781.56;;;22.85;62.28
52651;BME280;38537;47.226;39.702;2023-06-26T04:52:13;99783.19;;;22.83;62.17
52651;BME280;38537;47.226;39.702;2023-06-26T04:54:40;99775.88;;;22.78;62.53
52651;BME280;38537;47.226;39.702;2023-06-26T04:57:09;99782.34;;;22.75;62.76
52651;BME280;38537;47.226;39.702;2023-06-26T04:59:37;99777.47;;;22.76;63.21
52651;BME280;38537;47.226;39.702;2023-06-26T05:02:05;99780.75;;;22.81;62.88
52651;BME280;38537;47.226;39.702;2023-06-26T05:04:32;99784.84;;;22.95;63.22
52651;BME280;38537;47.226;39.702;2023-06-26T05:07:00;99784.44;;;23.03;63.01
52651;BME280;38537;47.226;39.702;2023-06-26T05:09:27;99775.88;;;23.17;62.71
52651;BME280;38537;47.226;39.702;2023-06-26T05:11:55;99786.06;;;23.36;62.62
52651;BME280;38537;47.226;39.702;2023-06-26T05:14:25;99784.78;;;23.48;62.46
52651;BME280;38537;47.226;39.702;2023-06-26T05:16:52;99775.06;;;23.56;62.36
52651;BME280;38537;47.226;39.702;2023-06-26T05:19:19;99776.22;;;23.69;62.37
52651;BME280;38537;47.226;39.702;2023-06-26T05:21:47;99776.63;;;23.78;62.34
52651;BME280;38537;47.226;39.702;2023-06-26T05:24:20;99776.56;;;23.85;61.98
52651;BME280;38537;47.226;39.702;2023-06-26T05:26:50;99774.53;;;23.89;61.87
52651;BME280;38537;47.226;39.702;2023-06-26T05:29:18;99770.03;;;23.99;61.58
52651;BME280;38537;47.226;39.702;2023-06-26T05:31:48;99770.38;;;24.12;61.58
52651;BME280;38537;47.226;39.702;2023-06-26T05:34:23;99761.75;;;24.22;61.52
52651;BME280;38537;47.226;39.702;2023-06-26T05:36:51;99762.94;;;24.32;61.06
52651;BME280;38537;47.226;39.702;2023-06-26T05:39:18;99761.28;;;24.38;61.04
52651;BME280;38537;47.226;39.702;2023-06-26T05:41:47;99762.50;;;24.44;61.35
52651;BME280;38537;47.226;39.702;2023-06-26T05:44:14;99764.13;;;24.45;60.58
52651;BME280;38537;47.226;39.702;2023-06-26T05:46:41;99762.00;;;24.53;61.13
52651;BME280;38537;47.226;39.702;2023-06-26T05:49:10;99755.44;;;24.59;61.06
52651;BME280;38537;47.226;39.702;2023-06-26T05:51:43;99751.78;;;24.55;60.32
52651;BME280;38537;47.226;39.702;2023-06-26T05:54:14;99751.78;;;24.59;60.54
52651;BME280;38537;47.226;39.702;2023-06-26T05:56:43;99748.53;;;24.57;60.41
52651;BME280;38537;47.226;39.702;2023-06-26T05:59:11;99748.16;;;24.51;60.18
52651;BME280;38537;47.226;39.702;2023-06-26T06:01:40;99756.81;;;24.37;60.80
52651;BME280;38537;47.226;39.702;2023-06-26T06:04:07;99742.91;;;24.43;61.23
52651;BME280;38537;47.226;39.702;2023-06-26T06:06:34;99743.66;;;24.50;61.26
52651;BME280;38537;47.226;39.702;2023-06-26T06:09:04;99740.41;;;24.52;60.66
52651;BME280;38537;47.226;39.702;2023-06-26T06:11:31;99742.03;;;24.49;60.87
52651;BME280;38537;47.226;39.702;2023-06-26T06:13:59;99737.91;;;24.57;61.07
52651;BME280;38537;47.226;39.702;2023-06-26T06:16:26;99741.94;;;24.67;61.15
52651;BME280;38537;47.226;39.702;2023-06-26T06:18:56;99741.88;;;24.74;61.18
52651;BME280;38537;47.226;39.702;2023-06-26T06:21:23;99745.06;;;24.83;61.05
52651;BME280;38537;47.226;39.702;2023-06-26T06:23:51;99740.09;;;24.94;60.98
52651;BME280;38537;47.226;39.702;2023-06-26T06:26:21;99726.56;;;25.06;61.09
52651;BME280;38537;47.226;39.702;2023-06-26T06:28:49;99740.72;;;25.16;61.23
52651;BME280;38537;47.226;39.702;2023-06-26T06:31:16;99732.94;;;25.20;60.40
52651;BME280;38537;47.226;39.702;2023-06-26T06:33:43;99723.50;;;25.23;60.41
52651;BME280;38537;47.226;39.702;2023-06-26T06:36:10;99730.38;;;25.33;60.43
52651;BME280;38537;47.226;39.702;2023-06-26T06:38:37;99742.53;;;25.41;60.39
52651;BME280;38537;47.226;39.702;2023-06-26T06:41:06;99736.34;;;25.46;60.38
52651;BME280;38537;47.226;39.702;2023-06-26T06:43:33;99728.13;;;25.51;60.05
52651;BME280;38537;47.226;39.702;2023-06-26T06:46:00;99738.34;;;25.52;60.01
52651;BME280;38537;47.226;39.702;2023-06-26T06:48:27;99736.59;;;25.58;60.31
52651;BME280;38537;47.226;39.702;2023-06-26T06:50:57;99734.09;;;25.68;60.06
52651;BME280;38537;47.226;39.702;2023-06-26T06:53:24;99730.34;;;25.74;60.24
52651;BME280;38537;47.226;39.702;2023-06-26T06:55:52;99733.50;;;25.83;60.17
52651;BME280;38537;47.226;39.702;2023-06-26T06:58:19;99735.03;;;25.91;60.11
52651;BME280;38537;47.226;39.702;2023-06-26T07:00:46;99738.72;;;25.92;59.32
52651;BME280;38537;47.226;39.702;2023-06-26T07:03:13;99734.19;;;25.94;59.83
52651;BME280;38537;47.226;39.702;2023-06-26T07:05:41;99739.06;;;25.98;59.75
52651;BME280;38537;47.226;39.702;2023-06-26T07:08:08;99735.31;;;26.01;59.74
52651;BME280;38537;47.226;39.702;2023-06-26T07:10:35;99740.56;;;26.06;59.96
52651;BME280;38537;47.226;39.702;2023-06-26T07:13:03;99733.09;;;26.15;59.83
52651;BME280;38537;47.226;39.702;2023-06-26T07:15:30;99732.94;;;26.26;59.64
52651;BME280;38537;47.226;39.702;2023-06-26T07:17:58;99736.97;;;26.32;59.48
52651;BME280;38537;47.226;39.702;2023-06-26T07:20:25;99710.47;;;26.24;59.45
52651;BME280;38537;47.226;39.702;2023-06-26T07:22:52;99733.84;;;26.50;59.39
52651;BME280;38537;47.226;39.702;2023-06-26T07:25:19;99732.56;;;26.54;59.30
52651;BME280;38537;47.226;39.702;2023-06-26T07:27:46;99739.84;;;26.59;59.16
52651;BME280;38537;47.226;39.702;2023-06-26T07:30:13;99727.53;;;26.62;59.14
52651;BME280;38537;47.226;39.702;2023-06-26T07:32:40;99727.84;;;26.68;59.23
52651;BME280;38537;47.226;39.702;2023-06-26T07:35:09;99723.66;;;26.72;58.93
52651;BME280;38537;47.226;39.702;2023-06-26T07:37:36;99733.84;;;26.77;58.94
52651;BME280;38537;47.226;39.702;2023-06-26T07:40:03;99733.34;;;26.82;58.94
52651;BME280;38537;47.226;39.702;2023-06-26T07:42:30;99725.88;;;26.88;58.84
52651;BME280;38537;47.226;39.702;2023-06-26T07:44:57;99723.38;;;26.90;57.94
52651;BME280;38537;47.226;39.702;2023-06-26T07:47:24;99720.56;;;26.86;58.60
52651;BME280;38537;47.226;39.702;2023-06-26T07:49:56;99714.78;;;26.90;58.66
52651;BME280;38537;47.226;39.702;2023-06-26T07:52:23;99717.19;;;26.95;58.53
52651;BME280;38537;47.226;39.702;2023-06-26T07:54:50;99717.06;;;27.02;58.75
52651;BME280;38537;47.226;39.702;2023-06-26T07:57:17;99709.56;;;27.08;58.70
52651;BME280;38537;47.226;39.702;2023-06-26T07:59:44;99704.47;;;27.19;58.82
52651;BME280;38537;47.226;39.702;2023-06-26T08:02:11;99710.91;;;27.27;58.64
52651;BME280;38537;47.226;39.702;2023-06-26T08:04:38;99708.75;;;27.31;58.36
52651;BME280;38537;47.226;39.702;2023-06-26T08:07:05;99712.78;;;27.34;58.26
52651;BME280;38537;47.226;39.702;2023-06-26T08:09:33;99712.78;;;27.34;57.92
52651;BME280;38537;47.226;39.702;2023-06-26T08:12:02;99700.03;;;27.38;58.41
52651;BME280;38537;47.226;39.702;2023-06-26T08:14:29;99696.66;;;27.43;58.11
52651;BME280;38537;47.226;39.702;2023-06-26T08:16:56;99701.41;;;27.50;58.14
52651;BME280;38537;47.226;39.702;2023-06-26T08:19:26;99699.66;;;27.56;58.09
52651;BME280;38537;47.226;39.702;2023-06-26T08:21:53;99695.88;;;27.62;58.24
52651;BME280;38537;47.226;39.702;2023-06-26T08:24:20;99699.88;;;27.69;58.42
52651;BME280;38537;47.226;39.702;2023-06-26T08:26:47;99695.22;;;27.75;58.05
52651;BME280;38537;47.226;39.702;2023-06-26T08:29:15;99692.63;;;27.80;57.76
52651;BME280;38537;47.226;39.702;2023-06-26T08:31:42;99693.75;;;27.86;58.03
52651;BME280;38537;47.226;39.702;2023-06-26T08:34:09;99694.03;;;27.92;57.92
52651;BME280;38537;47.226;39.702;2023-06-26T08:36:37;99696.00;;;27.95;57.63
52651;BME280;38537;47.226;39.702;2023-06-26T08:39:04;99686.06;;;27.99;57.86
52651;BME280;38537;47.226;39.702;2023-06-26T08:41:32;99689.22;;;28.05;57.34
52651;BME280;38537;47.226;39.702;2023-06-26T08:43:59;99696.22;;;28.04;57.19
52651;BME280;38537;47.226;39.702;2023-06-26T08:46:27;99688.78;;;28.07;57.38
52651;BME280;38537;47.226;39.702;2023-06-26T08:48:56;99678.13;;;28.07;57.05
52651;BME280;38537;47.226;39.702;2023-06-26T08:51:24;99681.44;;;28.06;56.26
52651;BME280;38537;47.226;39.702;2023-06-26T08:53:57;99685.56;;;28.05;57.04
52651;BME280;38537;47.226;39.702;2023-06-26T08:56:31;99681.44;;;28.06;57.21
52651;BME280;38537;47.226;39.702;2023-06-26T08:58:59;99673.63;;;28.06;56.77
52651;BME280;38537;47.226;39.702;2023-06-26T09:01:27;99679.75;;;28.08;57.19
52651;BME280;38537;47.226;39.702;2023-06-26T09:03:54;99673.91;;;28.12;57.17
52651;BME280;38537;47.226;39.702;2023-06-26T09:06:21;99659.56;;;28.12;57.09
52651;BME280;38537;47.226;39.702;2023-06-26T09:08:48;99656.69;;;28.12;57.07
52651;BME280;38537;47.226;39.702;2023-06-26T09:11:18;99653.28;;;28.17;57.56
52651;BME280;38537;47.226;39.702;2023-06-26T09:13:45;99651.16;;;28.21;56.70
52651;BME280;38537;47.226;39.702;2023-06-26T09:16:14;99656.50;;;28.19;56.80
52651;BME280;38537;47.226;39.702;2023-06-26T09:18:41;99637.63;;;28.21;57.05
52651;BME280;38537;47.226;39.702;2023-06-26T09:21:11;99641.66;;;28.24;57.27
52651;BME280;38537;47.226;39.702;2023-06-26T09:23:39;99639.88;;;28.30;57.36
52651;BME280;38537;47.226;39.702;2023-06-26T09:26:08;99633.69;;;28.31;56.98
52651;BME280;38537;47.226;39.702;2023-06-26T09:28:35;99632.00;;;28.34;56.88
52651;BME280;38537;47.226;39.702;2023-06-26T09:31:03;99634.31;;;28.39;56.97
52651;BME280;38537;47.226;39.702;2023-06-26T09:33:34;99626.25;;;28.50;57.45
52651;BME280;38537;47.226;39.702;2023-06-26T09:36:08;99629.19;;;28.63;56.93
52651;BME280;38537;47.226;39.702;2023-06-26T09:38:38;99617.91;;;28.72;56.85
52651;BME280;38537;47.226;39.702;2023-06-26T09:41:05;99624.72;;;28.78;56.54
52651;BME280;38537;47.226;39.702;2023-06-26T09:43:32;99613.50;;;28.84;56.58
52651;BME280;38537;47.226;39.702;2023-06-26T09:46:00;99606.41;;;28.88;56.44
52651;BME280;38537;47.226;39.702;2023-06-26T09:48:30;99603.44;;;28.92;56.04
52651;BME280;38537;47.226;39.702;2023-06-26T09:50:57;99601.38;;;28.92;56.70
52651;BME280;38537;47.226;39.702;2023-06-26T09:53:41;99605.31;;;28.98;56.78
52651;BME280;38537;47.226;39.702;2023-06-26T09:56:15;99595.31;;;29.03;56.36
52651;BME280;38537;47.226;39.702;2023-06-26T09:58:46;99599.81;;;29.04;56.15
52651;BME280;38537;47.226;39.702;2023-06-26T10:01:13;99593.69;;;29.02;55.16
52651;BME280;38537;47.226;39.702;2023-06-26T10:03:40;99597.84;;;29.01;56.55
52651;BME280;38537;47.226;39.702;2023-06-26T10:06:08;99594.75;;;29.08;56.60
52651;BME280;38537;47.226;39.702;2023-06-26T10:08:36;99589.47;;;29.07;54.66
52651;BME280;38537;47.226;39.702;2023-06-26T10:11:04;99603.50;;;29.05;54.99
52651;BME280;38537;47.226;39.702;2023-06-26T10:13:34;99603.75;;;29.10;56.09
52651;BME280;38537;47.226;39.702;2023-06-26T10:16:02;99613.72;;;29.22;55.72
52651;BME280;38537;47.226;39.702;2023-06-26T10:18:29;99617.88;;;29.33;55.85
52651;BME280;38537;47.226;39.702;2023-06-26T10:20:58;99611.72;;;29.48;56.20
52651;BME280;38537;47.226;39.702;2023-06-26T10:23:26;99613.50;;;29.58;55.70
52651;BME280;38537;47.226;39.702;2023-06-26T10:25:55;99616.75;;;29.73;55.89
52651;BME280;38537;47.226;39.702;2023-06-26T10:28:28;99620.84;;;29.88;55.92
52651;BME280;38537;47.226;39.702;2023-06-26T10:30:57;99621.78;;;30.10;55.77
52651;BME280;38537;47.226;39.702;2023-06-26T10:33:25;99615.13;;;30.26;55.28
52651;BME280;38537;47.226;39.702;2023-06-26T10:35:52;99601.28;;;30.46;54.89
52651;BME280;38537;47.226;39.702;2023-06-26T10:38:19;99600.00;;;30.60;54.86
52651;BME280;38537;47.226;39.702;2023-06-26T10:40:47;99601.84;;;30.66;54.29
52651;BME280;38537;47.226;39.702;2023-06-26T10:43:18;99592.84;;;30.64;53.41
52651;BME280;38537;47.226;39.702;2023-06-26T10:45:45;99596.09;;;30.66;54.16
52651;BME280;38537;47.226;39.702;2023-06-26T10:48:14;99584.91;;;30.68;54.22
52651;BME280;38537;47.226;39.702;2023-06-26T10:50:41;99583.50;;;30.73;53.89
52651;BME280;38537;47.226;39.702;2023-06-26T10:55:59;99558.50;;;30.70;53.02
52651;BME280;38537;47.226;39.702;2023-06-26T11:03:48;99575.34;;;30.59;53.07
52651;BME280;38537;47.226;39.702;2023-06-26T11:06:19;99561.47;;;30.54;54.80
52651;BME280;38537;47.226;39.702;2023-06-26T11:14:39;99536.72;;;30.44;52.65
52651;BME280;38537;47.226;39.702;2023-06-26T11:17:07;99555.63;;;30.32;52.79
52651;BME280;38537;47.226;39.702;2023-06-26T11:19:35;99555.53;;;30.23;52.81
52651;BME280;38537;47.226;39.702;2023-06-26T11:22:03;99550.59;;;30.11;52.59
52651;BME280;38537;47.226;39.702;2023-06-26T11:24:31;99551.41;;;29.98;53.75
52651;BME280;38537;47.226;39.702;2023-06-26T11:27:01;99556.19;;;29.89;54.52
52651;BME280;38537;47.226;39.702;2023-06-26T11:29:30;99550.56;;;29.73;53.61
52651;BME280;38537;47.226;39.702;2023-06-26T11:32:01;99557.56;;;29.59;53.46
52651;BME280;38537;47.226;39.702;2023-06-26T11:34:31;99567.91;;;29.44;54.08
52651;BME280;38537;47.226;39.702;2023-06-26T11:36:58;99564.22;;;29.27;54.09
52651;BME280;38537;47.226;39.702;2023-06-26T11:39:28;99554.88;;;29.10;54.98
52651;BME280;38537;47.226;39.702;2023-06-26T11:41:56;99564.25;;;28.98;55.35
52651;BME280;38537;47.226;39.702;2023-06-26T11:44:32;99572.63;;;28.92;55.89
52651;BME280;38537;47.226;39.702;2023-06-26T11:47:07;99594.97;;;29.01;56.93
52651;BME280;38537;47.226;39.702;2023-06-26T11:49:34;99597.38;;;29.03;56.49
52651;BME280;38537;47.226;39.702;2023-06-26T11:52:02;99613.38;;;29.04;56.78
52651;BME280;38537;47.226;39.702;2023-06-26T11:54:29;99599.53;;;29.15;56.61
52651;BME280;38537;47.226;39.702;2023-06-26T11:56:57;99617.16;;;29.29;56.41
52651;BME280;38537;47.226;39.702;2023-06-26T11:59:35;99620.13;;;29.42;55.75
52651;BME280;38537;47.226;39.702;2023-06-26T12:02:07;99606.13;;;29.44;56.02
52651;BME280;38537;47.226;39.702;2023-06-26T12:04:35;99581.00;;;29.45;56.01
52651;BME280;38537;47.226;39.702;2023-06-26T12:07:05;99579.38;;;29.15;55.03
52651;BME280;38537;47.226;39.702;2023-06-26T12:09:38;99568.41;;;28.97;55.67
52651;BME280;38537;47.226;39.702;2023-06-26T12:12:07;99571.28;;;28.81;55.90
52651;BME280;38537;47.226;39.702;2023-06-26T12:14:34;99585.50;;;28.55;55.74
52651;BME280;38537;47.226;39.702;2023-06-26T12:17:05;99582.97;;;28.25;56.11
52651;BME280;38537;47.226;39.702;2023-06-26T12:19:36;99579.34;;;28.05;57.29
52651;BME280;38537;47.226;39.702;2023-06-26T12:22:06;99581.81;;;27.86;58.73
52651;BME280;38537;47.226;39.702;2023-06-26T12:24:36;99581.56;;;27.61;60.12
52651;BME280;38537;47.226;39.702;2023-06-26T12:27:10;99575.53;;;27.36;60.57
52651;BME280;38537;47.226;39.702;2023-06-26T12:29:40;99557.97;;;27.14;62.77
52651;BME280;38537;47.226;39.702;2023-06-26T12:32:08;99550.53;;;26.96;62.46
52651;BME280;38537;47.226;39.702;2023-06-26T12:34:37;99552.59;;;26.96;62.90
52651;BME280;38537;47.226;39.702;2023-06-26T12:37:05;99563.19;;;26.99;63.83
52651;BME280;38537;47.226;39.702;2023-06-26T12:44:57;99589.44;;;27.17;62.53
52651;BME280;38537;47.226;39.702;2023-06-26T12:47:25;99585.88;;;27.29;60.85
52651;BME280;38537;47.226;39.702;2023-06-26T12:49:57;99579.59;;;27.38;62.53
52651;BME280;38537;47.226;39.702;2023-06-26T12:52:26;99572.22;;;27.37;62.12
52651;BME280;38537;47.226;39.702;2023-06-26T12:54:56;99571.22;;;27.27;62.05
52651;BME280;38537;47.226;39.702;2023-06-26T12:57:31;99564.75;;;27.04;62.05
52651;BME280;38537;47.226;39.702;2023-06-26T13:00:00;99564.81;;;27.00;62.90
52651;BME280;38537;47.226;39.702;2023-06-26T13:02:30;99560.09;;;26.86;64.25
52651;BME280;38537;47.226;39.702;2023-06-26T13:05:02;99543.66;;;26.47;66.80
52651;BME280;38537;47.226;39.702;2023-06-26T13:07:33;99532.47;;;26.33;67.42
52651;BME280;38537;47.226;39.702;2023-06-26T13:10:01;99537.47;;;26.25;69.34
52651;BME280;38537;47.226;39.702;2023-06-26T13:12:28;99532.75;;;26.15;70.49
52651;BME280;38537;47.226;39.702;2023-06-26T13:14:58;99532.91;;;26.05;71.83
52651;BME280;38537;47.226;39.702;2023-06-26T13:17:25;99523.81;;;25.86;72.49
52651;BME280;38537;47.226;39.702;2023-06-26T13:19:57;99532.56;;;25.76;74.10
52651;BME280;38537;47.226;39.702;2023-06-26T13:22:25;99531.91;;;25.65;74.48
52651;BME280;38537;47.226;39.702;2023-06-26T13:24:52;99521.50;;;25.47;76.01